sensor_id;sensor_type;location;lat;lon;timestamp;pressure;altitude;pressure_sealevel;temperature;humidity
64521;BME280;50896;46.714;17.322;2023-08-17T00:01:35;100617.91;;;19.50;100.00
64521;BME280;50896;46.714;17.322;2023-08-17T00:04:02;100609.59;;;19.51;100.00
64521;BME280;50896;46.714;17.322;2023-08-17T00:06:29;100617.28;;;19.47;100.00
64521;BME280;50896;46.714;17.322;2023-08-17T00:08:56;100611.31;;;19.39;100.00
64521;BME280;50896;46.714;17.322;2023-08-17T00:11:23;100608.41;;;19.40;100.00
64521;BME280;50896;46.714;17.322;2023-08-17T00:13:50;100597.66;;;19.34;100.00
64521;BME280;50896;46.714;17.322;2023-08-17T00:16:17;100609.44;;;19.39;100.00
64521;BME280;50896;46.714;17.322;2023-08-17T00:18:44;100610.66;;;19.43;100.00
64521;BME280;50896;46.714;17.322;2023-08-17T00:21:10;100620.38;;;19.51;100.00
64521;BME280;50896;46.714;17.322;2023-08-17T00:23:37;100616.59;;;19.59;100.00
64521;BME280;50896;46.714;17.322;2023-08-17T00:26:04;100618.22;;;19.67;100.00
64521;BME280;50896;46.714;17.322;2023-08-17T00:28:31;100611.72;;;19.74;100.00
64521;BME280;50896;46.714;17.322;2023-08-17T00:30:59;100616.47;;;19.86;100.00
64521;BME280;50896;46.714;17.322;2023-08-17T00:33:27;100613.06;;;19.97;100.00
64521;BME280;50896;46.714;17.322;2023-08-17T00:35:54;100608.41;;;20.04;100.00
64521;BME280;50896;46.714;17.322;2023-08-17T00:38:21;100601.91;;;20.12;100.00
64521;BME280;50896;46.714;17.322;2023-08-17T00:40:47;100604.94;;;20.22;100.00
64521;BME280;50896;46.714;17.322;2023-08-17T00:43:14;100605.66;;;20.36;100.00
64521;BME280;50896;46.714;17.322;2023-08-17T00:45:41;100607.38;;;20.49;100.00
64521;BME280;50896;46.714;17.322;2023-08-17T00:48:10;100605.38;;;20.63;100.00
64521;BME280;50896;46.714;17.322;2023-08-17T00:50:37;100600.75;;;20.70;100.00
64521;BME280;50896;46.714;17.322;2023-08-17T00:53:06;100593.16;;;20.79;100.00
64521;BME280;50896;46.714;17.322;2023-08-17T00:55:33;100597.59;;;20.92;100.00
64521;BME280;50896;46.714;17.322;2023-08-17T00:58:00;100606.31;;;20.94;100.00
64521;BME280;50896;46.714;17.322;2023-08-17T01:00:28;100605.53;;;21.05;100.00
64521;BME280;50896;46.714;17.322;2023-08-17T01:02:57;100600.50;;;21.09;100.00
64521;BME280;50896;46.714;17.322;2023-08-17T01:05:24;100589.25;;;21.12;100.00
64521;BME280;50896;46.714;17.322;2023-08-17T01:07:51;100588.31;;;21.18;100.00
64521;BME280;50896;46.714;17.322;2023-08-17T01:10:18;100589.63;;;21.15;100.00
64521;BME280;50896;46.714;17.322;2023-08-17T01:15:22;100590.81;;;21.20;100.00
64521;BME280;50896;46.714;17.322;2023-08-17T01:20:31;100587.81;;;21.09;100.00
64521;BME280;50896;46.714;17.322;2023-08-17T01:23:09;100590.06;;;21.12;100.00
64521;BME280;50896;46.714;17.322;2023-08-17T01:25:35;100598.53;;;21.16;100.00
64521;BME280;50896;46.714;17.322;2023-08-17T01:28:05;100600.56;;;21.21;100.00
64521;BME280;50896;46.714;17.322;2023-08-17T01:30:39;100596.56;;;21.23;100.00
64521;BME280;50896;46.714;17.322;2023-08-17T01:33:10;100598.56;;;21.28;100.00
64521;BME280;50896;46.714;17.322;2023-08-17T01:35:52;100601.09;;;21.41;100.00
64521;BME280;50896;46.714;17.322;2023-08-17T01:38:21;100607.34;;;21.42;100.00
64521;BME280;50896;46.714;17.322;2023-08-17T01:40:50;100605.94;;;21.39;100.00
64521;BME280;50896;46.714;17.322;2023-08-17T01:43:20;100606.28;;;21.43;100.00
64521;BME280;50896;46.714;17.322;2023-08-17T01:45:47;100594.41;;;21.44;100.00
64521;BME280;50896;46.714;17.322;2023-08-17T01:48:14;100589.72;;;21.39;100.00
64521;BME280;50896;46.714;17.322;2023-08-17T01:50:41;100585.69;;;21.42;100.00
64521;BME280;50896;46.714;17.322;2023-08-17T01:53:08;100591.94;;;21.42;100.00
64521;BME280;50896;46.714;17.322;2023-08-17T01:55:36;100595.47;;;21.43;100.00
64521;BME280;50896;46.714;17.322;2023-08-17T01:58:05;100592.06;;;21.47;100.00
64521;BME280;50896;46.714;17.322;2023-08-17T02:00:32;100588.31;;;21.48;100.00
64521;BME280;50896;46.714;17.322;2023-08-17T02:03:00;100589.34;;;21.47;100.00
64521;BME280;50896;46.714;17.322;2023-08-17T02:05:27;100593.25;;;21.51;100.00
64521;BME280;50896;46.714;17.322;2023-08-17T02:07:55;100589.53;;;21.53;100.00
64521;BME280;50896;46.714;17.322;2023-08-17T02:10:22;100590.53;;;21.51;100.00
64521;BME280;50896;46.714;17.322;2023-08-17T02:12:49;100591.25;;;21.47;100.00
64521;BME280;50896;46.714;17.322;2023-08-17T02:15:24;100586.06;;;21.45;100.00
64521;BME280;50896;46.714;17.322;2023-08-17T02:17:51;100578.91;;;21.39;100.00
64521;BME280;50896;46.714;17.322;2023-08-17T02:20:18;100584.41;;;21.44;100.00
64521;BME280;50896;46.714;17.322;2023-08-17T02:22:45;100579.34;;;21.36;100.00
64521;BME280;50896;46.714;17.322;2023-08-17T02:25:12;100586.53;;;21.42;100.00
64521;BME280;50896;46.714;17.322;2023-08-17T02:27:39;100580.53;;;21.40;100.00
64521;BME280;50896;46.714;17.322;2023-08-17T02:30:06;100574.84;;;21.30;100.00
64521;BME280;50896;46.714;17.322;2023-08-17T02:32:33;100581.69;;;21.32;100.00
64521;BME280;50896;46.714;17.322;2023-08-17T02:35:00;100580.13;;;21.25;100.00
64521;BME280;50896;46.714;17.322;2023-08-17T02:37:27;100576.31;;;21.14;100.00
64521;BME280;50896;46.714;17.322;2023-08-17T02:39:54;100577.59;;;21.11;100.00
64521;BME280;50896;46.714;17.322;2023-08-17T02:42:21;100579.84;;;21.14;100.00
64521;BME280;50896;46.714;17.322;2023-08-17T02:44:48;100576.09;;;21.15;100.00
64521;BME280;50896;46.714;17.322;2023-08-17T02:47:15;100581.13;;;21.12;100.00
64521;BME280;50896;46.714;17.322;2023-08-17T02:49:42;100574.78;;;21.18;100.00
64521;BME280;50896;46.714;17.322;2023-08-17T02:52:09;100577.88;;;21.22;100.00
64521;BME280;50896;46.714;17.322;2023-08-17T02:54:36;100575.66;;;21.30;100.00
64521;BME280;50896;46.714;17.322;2023-08-17T02:57:02;100574.53;;;21.38;100.00
64521;BME280;50896;46.714;17.322;2023-08-17T02:59:29;100578.66;;;21.41;100.00
64521;BME280;50896;46.714;17.322;2023-08-17T03:01:57;100576.50;;;21.31;100.00
64521;BME280;50896;46.714;17.322;2023-08-17T03:04:24;100578.75;;;21.34;100.00
64521;BME280;50896;46.714;17.322;2023-08-17T03:06:51;100583.19;;;21.28;100.00
64521;BME280;50896;46.714;17.322;2023-08-17T03:09:18;100574.84;;;21.30;100.00
64521;BME280;50896;46.714;17.322;2023-08-17T03:11:46;100576.38;;;21.26;100.00
64521;BME280;50896;46.714;17.322;2023-08-17T03:14:13;100584.47;;;21.26;100.00
64521;BME280;50896;46.714;17.322;2023-08-17T03:16:39;100577.66;;;21.23;100.00
64521;BME280;50896;46.714;17.322;2023-08-17T03:19:06;100578.34;;;21.19;100.00
64521;BME280;50896;46.714;17.322;2023-08-17T03:21:34;100577.66;;;21.23;100.00
64521;BME280;50896;46.714;17.322;2023-08-17T03:24:01;100583.66;;;21.25;100.00
64521;BME280;50896;46.714;17.322;2023-08-17T03:26:28;100591.13;;;21.11;100.00
64521;BME280;50896;46.714;17.322;2023-08-17T03:28:55;100594.41;;;21.13;100.00
64521;BME280;50896;46.714;17.322;2023-08-17T03:31:22;100588.78;;;21.15;100.00
64521;BME280;50896;46.714;17.322;2023-08-17T03:33:49;100593.59;;;21.13;100.00
64521;BME280;50896;46.714;17.322;2023-08-17T03:36:17;100598.16;;;21.12;100.00
64521;BME280;50896;46.714;17.322;2023-08-17T03:38:44;100597.34;;;21.12;100.00
64521;BME280;50896;46.714;17.322;2023-08-17T03:41:11;100594.94;;;21.04;100.00
64521;BME280;50896;46.714;17.322;2023-08-17T03:43:37;100605.38;;;21.00;100.00
64521;BME280;50896;46.714;17.322;2023-08-17T03:46:04;100612.97;;;21.10;100.00
64521;BME280;50896;46.714;17.322;2023-08-17T03:48:33;100606.25;;;21.12;100.00
64521;BME280;50896;46.714;17.322;2023-08-17T03:51:00;100615.22;;;21.13;100.00
64521;BME280;50896;46.714;17.322;2023-08-17T03:53:28;100616.19;;;21.19;100.00
64521;BME280;50896;46.714;17.322;2023-08-17T03:55:55;100626.78;;;21.20;100.00
64521;BME280;50896;46.714;17.322;2023-08-17T03:58:22;100626.38;;;21.16;100.00
64521;BME280;50896;46.714;17.322;2023-08-17T04:00:52;100630.06;;;21.22;100.00
64521;BME280;50896;46.714;17.322;2023-08-17T04:03:25;100632.88;;;21.15;100.00
64521;BME280;50896;46.714;17.322;2023-08-17T04:05:52;100626.38;;;21.16;100.00
64521;BME280;50896;46.714;17.322;2023-08-17T04:08:19;100618.44;;;21.22;100.00
64521;BME280;50896;46.714;17.322;2023-08-17T04:10:46;100612.75;;;21.11;100.00
64521;BME280;50896;46.714;17.322;2023-08-17T04:13:13;100607.34;;;21.11;100.00
64521;BME280;50896;46.714;17.322;2023-08-17T04:15:40;100613.19;;;21.08;100.00
64521;BME280;50896;46.714;17.322;2023-08-17T04:18:06;100608.16;;;21.12;100.00
64521;BME280;50896;46.714;17.322;2023-08-17T04:20:33;100613.63;;;21.05;100.00
64521;BME280;50896;46.714;17.322;2023-08-17T04:23:02;100609.66;;;21.08;100.00
64521;BME280;50896;46.714;17.322;2023-08-17T04:25:29;100624.59;;;21.10;100.00
64521;BME280;50896;46.714;17.322;2023-08-17T04:27:56;100617.69;;;21.14;100.00
64521;BME280;50896;46.714;17.322;2023-08-17T04:30:23;100624.84;;;21.09;100.00
64521;BME280;50896;46.714;17.322;2023-08-17T04:32:56;100629.31;;;21.15;100.00
64521;BME280;50896;46.714;17.322;2023-08-17T04:35:23;100631.28;;;21.08;100.00
64521;BME280;50896;46.714;17.322;2023-08-17T04:37:50;100629.75;;;21.30;100.00
64521;BME280;50896;46.714;17.322;2023-08-17T04:40:17;100626.78;;;21.50;100.00
64521;BME280;50896;46.714;17.322;2023-08-17T04:42:44;100629.63;;;21.56;100.00
64521;BME280;50896;46.714;17.322;2023-08-17T04:45:10;100626.13;;;21.67;100.00
64521;BME280;50896;46.714;17.322;2023-08-17T04:47:40;100626.97;;;21.67;100.00
64521;BME280;50896;46.714;17.322;2023-08-17T04:50:07;100614.38;;;21.61;100.00
64521;BME280;50896;46.714;17.322;2023-08-17T04:52:34;100619.44;;;21.58;100.00
64521;BME280;50896;46.714;17.322;2023-08-17T04:55:01;100615.78;;;21.64;100.00
64521;BME280;50896;46.714;17.322;2023-08-17T04:57:30;100620.84;;;21.60;100.00
64521;BME280;50896;46.714;17.322;2023-08-17T04:59:58;100618.16;;;21.60;100.00
64521;BME280;50896;46.714;17.322;2023-08-17T05:02:25;100619.91;;;21.66;100.00
64521;BME280;50896;46.714;17.322;2023-08-17T05:04:52;100613.69;;;21.66;100.00
64521;BME280;50896;46.714;17.322;2023-08-17T05:07:19;100616.88;;;21.75;100.00
64521;BME280;50896;46.714;17.322;2023-08-17T05:09:46;100611.84;;;21.78;100.00
64521;BME280;50896;46.714;17.322;2023-08-17T05:12:13;100613.03;;;21.82;100.00
64521;BME280;50896;46.714;17.322;2023-08-17T05:14:40;100616.44;;;21.90;100.00
64521;BME280;50896;46.714;17.322;2023-08-17T05:17:07;100615.16;;;21.92;100.00
64521;BME280;50896;46.714;17.322;2023-08-17T05:19:34;100622.69;;;21.90;100.00
64521;BME280;50896;46.714;17.322;2023-08-17T05:22:01;100624.69;;;21.95;100.00
64521;BME280;50896;46.714;17.322;2023-08-17T05:24:28;100632.22;;;22.05;100.00
64521;BME280;50896;46.714;17.322;2023-08-17T05:26:55;100632.78;;;21.95;100.00
64521;BME280;50896;46.714;17.322;2023-08-17T05:29:22;100640.34;;;21.93;100.00
64521;BME280;50896;46.714;17.322;2023-08-17T05:31:49;100625.28;;;22.09;100.00
64521;BME280;50896;46.714;17.322;2023-08-17T05:34:16;100626.22;;;22.14;100.00
64521;BME280;50896;46.714;17.322;2023-08-17T05:36:43;100625.66;;;22.24;100.00
64521;BME280;50896;46.714;17.322;2023-08-17T05:39:10;100632.03;;;22.30;100.00
64521;BME280;50896;46.714;17.322;2023-08-17T05:41:37;100627.34;;;22.37;100.00
64521;BME280;50896;46.714;17.322;2023-08-17T05:44:03;100628.63;;;22.46;100.00
64521;BME280;50896;46.714;17.322;2023-08-17T05:46:30;100634.28;;;22.57;100.00
64521;BME280;50896;46.714;17.322;2023-08-17T05:48:57;100635.81;;;22.64;100.00
64521;BME280;50896;46.714;17.322;2023-08-17T05:51:25;100631.56;;;22.68;100.00
64521;BME280;50896;46.714;17.322;2023-08-17T05:53:52;100629.69;;;22.69;100.00
64521;BME280;50896;46.714;17.322;2023-08-17T05:56:19;100637.69;;;22.76;100.00
64521;BME280;50896;46.714;17.322;2023-08-17T05:58:46;100641.19;;;22.88;100.00
64521;BME280;50896;46.714;17.322;2023-08-17T06:01:13;100633.78;;;22.83;100.00
64521;BME280;50896;46.714;17.322;2023-08-17T06:03:40;100642.03;;;22.89;100.00
64521;BME280;50896;46.714;17.322;2023-08-17T06:06:07;100648.16;;;22.84;100.00
64521;BME280;50896;46.714;17.322;2023-08-17T06:08:34;100650.88;;;22.84;100.00
64521;BME280;50896;46.714;17.322;2023-08-17T06:11:01;100645.09;;;22.80;100.00
64521;BME280;50896;46.714;17.322;2023-08-17T06:13:28;100643.34;;;22.86;100.00
64521;BME280;50896;46.714;17.322;2023-08-17T06:15:56;100648.63;;;22.93;100.00
64521;BME280;50896;46.714;17.322;2023-08-17T06:18:24;100653.56;;;22.96;100.00
64521;BME280;50896;46.714;17.322;2023-08-17T06:20:51;100659.56;;;22.98;100.00
64521;BME280;50896;46.714;17.322;2023-08-17T06:23:20;100641.88;;;22.95;100.00
64521;BME280;50896;46.714;17.322;2023-08-17T06:25:47;100644.81;;;23.06;100.00
64521;BME280;50896;46.714;17.322;2023-08-17T06:28:14;100656.16;;;23.02;100.00
64521;BME280;50896;46.714;17.322;2023-08-17T06:30:41;100648.69;;;23.10;100.00
64521;BME280;50896;46.714;17.322;2023-08-17T06:33:07;100647.75;;;23.16;100.00
64521;BME280;50896;46.714;17.322;2023-08-17T06:35:34;100646.47;;;23.18;100.00
64521;BME280;50896;46.714;17.322;2023-08-17T06:38:01;100648.13;;;23.19;100.00
64521;BME280;50896;46.714;17.322;2023-08-17T06:40:28;100649.28;;;23.24;100.00
64521;BME280;50896;46.714;17.322;2023-08-17T06:42:55;100648.78;;;23.27;100.00
64521;BME280;50896;46.714;17.322;2023-08-17T06:45:22;100642.75;;;23.36;100.00
64521;BME280;50896;46.714;17.322;2023-08-17T06:47:49;100642.25;;;23.40;100.00
64521;BME280;50896;46.714;17.322;2023-08-17T06:50:16;100642.34;;;23.45;100.00
64521;BME280;50896;46.714;17.322;2023-08-17T06:52:43;100646.56;;;23.52;100.00
64521;BME280;50896;46.714;17.322;2023-08-17T06:55:10;100639.56;;;23.57;100.00
64521;BME280;50896;46.714;17.322;2023-08-17T06:57:37;100639.00;;;23.54;100.00
64521;BME280;50896;46.714;17.322;2023-08-17T07:00:04;100635.25;;;23.55;100.00
64521;BME280;50896;46.714;17.322;2023-08-17T07:02:33;100636.16;;;23.61;100.00
64521;BME280;50896;46.714;17.322;2023-08-17T07:05:18;100640.84;;;23.66;100.00
64521;BME280;50896;46.714;17.322;2023-08-17T07:07:47;100646.75;;;23.63;100.00
64521;BME280;50896;46.714;17.322;2023-08-17T07:10:14;100646.75;;;23.63;100.00
64521;BME280;50896;46.714;17.322;2023-08-17T07:12:41;100653.00;;;23.63;100.00
64521;BME280;50896;46.714;17.322;2023-08-17T07:15:08;100650.72;;;23.72;100.00
64521;BME280;50896;46.714;17.322;2023-08-17T07:17:35;100648.34;;;23.76;100.00
64521;BME280;50896;46.714;17.322;2023-08-17T07:20:04;100647.59;;;23.80;100.00
64521;BME280;50896;46.714;17.322;2023-08-17T07:22:43;100658.22;;;23.82;100.00
64521;BME280;50896;46.714;17.322;2023-08-17T07:25:10;100663.06;;;23.80;100.00
64521;BME280;50896;46.714;17.322;2023-08-17T07:27:37;100658.47;;;23.80;100.00
64521;BME280;50896;46.714;17.322;2023-08-17T07:30:04;100655.75;;;23.80;100.00
64521;BME280;50896;46.714;17.322;2023-08-17T07:32:31;100664.56;;;23.87;100.00
64521;BME280;50896;46.714;17.322;2023-08-17T07:34:59;100666.34;;;23.94;100.00
64521;BME280;50896;46.714;17.322;2023-08-17T07:37:25;100663.94;;;23.97;100.00
64521;BME280;50896;46.714;17.322;2023-08-17T07:39:59;100657.59;;;23.92;100.00
64521;BME280;50896;46.714;17.322;2023-08-17T07:42:26;100659.53;;;23.79;100.00
64521;BME280;50896;46.714;17.322;2023-08-17T07:44:53;100656.84;;;23.79;100.00
64521;BME280;50896;46.714;17.322;2023-08-17T07:47:20;100657.03;;;23.89;100.00
64521;BME280;50896;46.714;17.322;2023-08-17T07:49:47;100659.84;;;23.95;100.00
64521;BME280;50896;46.714;17.322;2023-08-17T07:52:15;100664.78;;;23.98;100.00
64521;BME280;50896;46.714;17.322;2023-08-17T07:54:44;100655.88;;;24.02;100.00
64521;BME280;50896;46.714;17.322;2023-08-17T07:57:21;100654.56;;;24.05;100.00
64521;BME280;50896;46.714;17.322;2023-08-17T07:59:50;100656.38;;;24.16;100.00
64521;BME280;50896;46.714;17.322;2023-08-17T08:02:27;100659.59;;;24.13;100.00
64521;BME280;50896;46.714;17.322;2023-08-17T08:05:03;100656.38;;;24.16;100.00
64521;BME280;50896;46.714;17.322;2023-08-17T08:07:35;100652.75;;;24.28;100.00
64521;BME280;50896;46.714;17.322;2023-08-17T08:10:11;100648.31;;;24.38;100.00
64521;BME280;50896;46.714;17.322;2023-08-17T08:12:48;100651.09;;;24.44;100.00
64521;BME280;50896;46.714;17.322;2023-08-17T08:15:24;100648.13;;;24.45;100.00
64521;BME280;50896;46.714;17.322;2023-08-17T08:18:05;100648.22;;;24.50;100.00
64521;BME280;50896;46.714;17.322;2023-08-17T08:20:43;100650.47;;;24.58;100.00
64521;BME280;50896;46.714;17.322;2023-08-17T08:23:19;100647.31;;;24.62;100.00
64521;BME280;50896;46.714;17.322;2023-08-17T08:25:52;100640.72;;;24.57;100.00
64521;BME280;50896;46.714;17.322;2023-08-17T08:28:20;100646.22;;;24.63;100.00
64521;BME280;50896;46.714;17.322;2023-08-17T08:30:51;100647.38;;;24.67;100.00
64521;BME280;50896;46.714;17.322;2023-08-17T08:33:34;100644.34;;;24.63;100.00
64521;BME280;50896;46.714;17.322;2023-08-17T08:36:11;100646.56;;;24.66;100.00
64521;BME280;50896;46.714;17.322;2023-08-17T08:38:56;100643.41;;;24.74;100.00
64521;BME280;50896;46.714;17.322;2023-08-17T08:41:37;100639.72;;;24.64;100.00
64521;BME280;50896;46.714;17.322;2023-08-17T08:44:13;100642.81;;;24.72;100.00
64521;BME280;50896;46.714;17.322;2023-08-17T08:46:52;100644.66;;;24.67;100.00
64521;BME280;50896;46.714;17.322;2023-08-17T08:49:26;100640.19;;;24.78;100.00
64521;BME280;50896;46.714;17.322;2023-08-17T08:52:02;100640.19;;;24.78;100.00
64521;BME280;50896;46.714;17.322;2023-08-17T08:54:46;100638.28;;;24.78;100.00
64521;BME280;50896;46.714;17.322;2023-08-17T08:57:34;100640.00;;;24.84;100.00
64521;BME280;50896;46.714;17.322;2023-08-17T09:00:16;100635.88;;;24.82;100.00
64521;BME280;50896;46.714;17.322;2023-08-17T09:02:50;100646.06;;;24.91;100.00
64521;BME280;50896;46.714;17.322;2023-08-17T09:05:25;100640.44;;;24.98;100.00
64521;BME280;50896;46.714;17.322;2023-08-17T09:07:59;100636.09;;;24.97;100.00
64521;BME280;50896;46.714;17.322;2023-08-17T09:10:36;100634.50;;;25.01;100.00
64521;BME280;50896;46.714;17.322;2023-08-17T09:13:07;100637.03;;;25.08;100.00
64521;BME280;50896;46.714;17.322;2023-08-17T09:15:40;100636.72;;;25.04;100.00
64521;BME280;50896;46.714;17.322;2023-08-17T09:18:12;100636.97;;;25.03;100.00
64521;BME280;50896;46.714;17.322;2023-08-17T09:20:48;100632.03;;;25.00;100.00
64521;BME280;50896;46.714;17.322;2023-08-17T09:23:28;100621.41;;;24.98;100.00
64521;BME280;50896;46.714;17.322;2023-08-17T09:26:08;100627.16;;;25.02;100.00
64521;BME280;50896;46.714;17.322;2023-08-17T09:28:42;100621.16;;;25.00;100.00
64521;BME280;50896;46.714;17.322;2023-08-17T09:31:16;100623.06;;;24.99;100.00
64521;BME280;50896;46.714;17.322;2023-08-17T09:33:57;100615.22;;;25.03;100.00
64521;BME280;50896;46.714;17.322;2023-08-17T09:36:31;100624.88;;;25.16;100.00
64521;BME280;50896;46.714;17.322;2023-08-17T09:39:06;100612.66;;;25.18;100.00
64521;BME280;50896;46.714;17.322;2023-08-17T09:41:43;100605.91;;;25.21;100.00
64521;BME280;50896;46.714;17.322;2023-08-17T09:44:19;100608.09;;;25.24;100.00
64521;BME280;50896;46.714;17.322;2023-08-17T09:46:57;100607.53;;;25.22;100.00
64521;BME280;50896;46.714;17.322;2023-08-17T09:49:36;100608.41;;;25.28;100.00
64521;BME280;50896;46.714;17.322;2023-08-17T09:52:08;100607.09;;;25.30;100.00
64521;BME280;50896;46.714;17.322;2023-08-17T09:54:39;100601.72;;;25.35;100.00
64521;BME280;50896;46.714;17.322;2023-08-17T09:57:18;100610.19;;;25.39;100.00
64521;BME280;50896;46.714;17.322;2023-08-17T09:59:51;100610.19;;;25.39;100.00
64521;BME280;50896;46.714;17.322;2023-08-17T10:02:31;100605.94;;;25.48;100.00
64521;BME280;50896;46.714;17.322;2023-08-17T10:05:11;100593.41;;;25.47;100.00
64521;BME280;50896;46.714;17.322;2023-08-17T10:08:24;100588.25;;;25.51;100.00
64521;BME280;50896;46.714;17.322;2023-08-17T10:10:59;100596.13;;;25.47;100.00
64521;BME280;50896;46.714;17.322;2023-08-17T10:13:59;100608.16;;;25.51;100.00
64521;BME280;50896;46.714;17.322;2023-08-17T10:16:46;100595.06;;;25.48;100.00
64521;BME280;50896;46.714;17.322;2023-08-17T10:19:54;100601.84;;;25.46;100.00
64521;BME280;50896;46.714;17.322;2023-08-17T10:23:01;100593.63;;;25.40;100.00
64521;BME280;50896;46.714;17.322;2023-08-17T10:25:42;100592.22;;;25.38;100.00
64521;BME280;50896;46.714;17.322;2023-08-17T10:28:30;100595.81;;;25.44;100.00
64521;BME280;50896;46.714;17.322;2023-08-17T10:31:02;100593.69;;;25.51;100.00
64521;BME280;50896;46.714;17.322;2023-08-17T10:33:39;100593.56;;;25.63;100.00
64521;BME280;50896;46.714;17.322;2023-08-17T10:36:14;100584.09;;;25.70;100.00
64521;BME280;50896;46.714;17.322;2023-08-17T10:39:27;100592.06;;;25.82;100.00
64521;BME280;50896;46.714;17.322;2023-08-17T10:42:01;100582.63;;;25.90;100.00
64521;BME280;50896;46.714;17.322;2023-08-17T10:44:44;100586.22;;;26.01;100.00
64521;BME280;50896;46.714;17.322;2023-08-17T10:47:30;100579.78;;;26.07;100.00
64521;BME280;50896;46.714;17.322;2023-08-17T10:50:24;100584.75;;;26.15;100.00
64521;BME280;50896;46.714;17.322;2023-08-17T10:53:13;100586.13;;;26.23;100.00
64521;BME280;50896;46.714;17.322;2023-08-17T10:55:50;100578.31;;;26.37;100.00
64521;BME280;50896;46.714;17.322;2023-08-17T10:58:51;100579.22;;;26.53;100.00
64521;BME280;50896;46.714;17.322;2023-08-17T11:02:02;100576.56;;;26.68;100.00
64521;BME280;50896;46.714;17.322;2023-08-17T11:04:50;100579.91;;;26.75;100.00
64521;BME280;50896;46.714;17.322;2023-08-17T11:07:22;100579.66;;;26.82;100.00
64521;BME280;50896;46.714;17.322;2023-08-17T11:13:13;100574.78;;;27.00;100.00
64521;BME280;50896;46.714;17.322;2023-08-17T11:15:50;100570.72;;;27.12;100.00
64521;BME280;50896;46.714;17.322;2023-08-17T11:18:19;100572.09;;;27.15;100.00
64521;BME280;50896;46.714;17.322;2023-08-17T11:21:02;100571.31;;;27.30;100.00
64521;BME280;50896;46.714;17.322;2023-08-17T11:23:47;100570.53;;;27.40;100.00
64521;BME280;50896;46.714;17.322;2023-08-17T11:26:21;100576.56;;;27.52;100.00
64521;BME280;50896;46.714;17.322;2023-08-17T11:28:58;100566.72;;;27.61;100.00
64521;BME280;50896;46.714;17.322;2023-08-17T11:31:32;100567.56;;;27.67;100.00
64521;BME280;50896;46.714;17.322;2023-08-17T11:34:04;100573.84;;;27.68;100.00
64521;BME280;50896;46.714;17.322;2023-08-17T11:36:40;100567.28;;;27.79;100.00
64521;BME280;50896;46.714;17.322;2023-08-17T11:39:15;100569.47;;;28.03;100.00
64521;BME280;50896;46.714;17.322;2023-08-17T11:41:53;100564.25;;;28.17;100.00
64521;BME280;50896;46.714;17.322;2023-08-17T11:44:45;100566.44;;;28.20;100.00
64521;BME280;50896;46.714;17.322;2023-08-17T11:47:21;100563.16;;;28.18;100.00
64521;BME280;50896;46.714;17.322;2023-08-17T11:49:51;100561.81;;;28.15;100.00
64521;BME280;50896;46.714;17.322;2023-08-17T11:52:45;100557.44;;;28.09;100.00
64521;BME280;50896;46.714;17.322;2023-08-17T11:55:22;100559.63;;;28.02;100.00
64521;BME280;50896;46.714;17.322;2023-08-17T11:57:50;100559.09;;;27.79;100.00
64521;BME280;50896;46.714;17.322;2023-08-17T12:00:24;100562.38;;;27.60;100.00
64521;BME280;50896;46.714;17.322;2023-08-17T12:03:25;100553.91;;;27.47;100.00
64521;BME280;50896;46.714;17.322;2023-08-17T12:05:59;100553.56;;;27.22;100.00
64521;BME280;50896;46.714;17.322;2023-08-17T12:08:36;100550.28;;;27.15;100.00
64521;BME280;50896;46.714;17.322;2023-08-17T12:11:33;100560.06;;;27.01;100.00
64521;BME280;50896;46.714;17.322;2023-08-17T12:14:09;100553.50;;;26.86;100.00
64521;BME280;50896;46.714;17.322;2023-08-17T12:16:49;100552.34;;;26.72;100.00
64521;BME280;50896;46.714;17.322;2023-08-17T12:19:26;100542.19;;;26.62;100.00
64521;BME280;50896;46.714;17.322;2023-08-17T12:22:27;100539.13;;;26.43;100.00
64521;BME280;50896;46.714;17.322;2023-08-17T12:24:58;100542.09;;;26.36;100.00
64521;BME280;50896;46.714;17.322;2023-08-17T12:27:59;100542.31;;;26.30;100.00
64521;BME280;50896;46.714;17.322;2023-08-17T12:30:37;100533.88;;;26.31;100.00
64521;BME280;50896;46.714;17.322;2023-08-17T12:33:15;100536.81;;;26.24;100.00
64521;BME280;50896;46.714;17.322;2023-08-17T12:35:58;100537.06;;;26.18;100.00
64521;BME280;50896;46.714;17.322;2023-08-17T12:38:54;100536.50;;;26.16;100.00
64521;BME280;50896;46.714;17.322;2023-08-17T12:41:36;100530.75;;;26.12;100.00
64521;BME280;50896;46.714;17.322;2023-08-17T12:44:10;100530.53;;;26.14;100.00
64521;BME280;50896;46.714;17.322;2023-08-17T12:46:48;100529.69;;;26.13;100.00
64521;BME280;50896;46.714;17.322;2023-08-17T12:49:19;100529.41;;;26.15;100.00
64521;BME280;50896;46.714;17.322;2023-08-17T12:51:47;100526.41;;;26.11;100.00
64521;BME280;50896;46.714;17.322;2023-08-17T12:54:37;100534.59;;;26.16;100.00
64521;BME280;50896;46.714;17.322;2023-08-17T12:57:32;100523.47;;;26.23;100.00
64521;BME280;50896;46.714;17.322;2023-08-17T13:00:00;100530.56;;;26.24;100.00
64521;BME280;50896;46.714;17.322;2023-08-17T13:02:32;100529.75;;;26.23;100.00
64521;BME280;50896;46.714;17.322;2023-08-17T13:05:08;100524.81;;;26.20;100.00